sensor_id;sensor_type;location;lat;lon;timestamp;P1;durP1;ratioP1;P2;durP2;ratioP2
21517;SDS011;61765;45.794;24.150;2023-05-16T00:01:00;10.35;;;3.25;;
21517;SDS011;61765;45.794;24.150;2023-05-16T00:09:05;12.25;;;3.05;;
21517;SDS011;61765;45.794;24.150;2023-05-16T00:17:13;8.18;;;2.63;;
21517;SDS011;61765;45.794;24.150;2023-05-16T00:25:21;9.25;;;2.95;;
21517;SDS011;61765;45.794;24.150;2023-05-16T00:33:29;10.15;;;2.60;;
21517;SDS011;61765;45.794;24.150;2023-05-16T00:41:35;13.02;;;3.55;;
21517;SDS011;61765;45.794;24.150;2023-05-16T00:49:43;11.40;;;3.80;;
21517;SDS011;61765;45.794;24.150;2023-05-16T00:57:49;13.52;;;3.92;;
21517;SDS011;61765;45.794;24.150;2023-05-16T01:06:00;13.27;;;3.50;;
21517;SDS011;61765;45.794;24.150;2023-05-16T01:14:08;10.30;;;3.60;;
21517;SDS011;61765;45.794;24.150;2023-05-16T01:22:26;12.90;;;4.40;;
21517;SDS011;61765;45.794;24.150;2023-05-16T01:30:44;13.52;;;4.18;;
21517;SDS011;61765;45.794;24.150;2023-05-16T01:38:52;10.88;;;4.07;;
21517;SDS011;61765;45.794;24.150;2023-05-16T01:47:08;9.13;;;4.50;;
21517;SDS011;61765;45.794;24.150;2023-05-16T01:55:19;16.03;;;4.70;;
21517;SDS011;61765;45.794;24.150;2023-05-16T02:03:30;15.20;;;5.05;;
21517;SDS011;61765;45.794;24.150;2023-05-16T02:11:36;12.15;;;5.47;;
21517;SDS011;61765;45.794;24.150;2023-05-16T02:19:44;8.45;;;4.70;;
21517;SDS011;61765;45.794;24.150;2023-05-16T02:27:49;11.32;;;4.88;;
21517;SDS011;61765;45.794;24.150;2023-05-16T02:35:57;18.25;;;5.70;;
21517;SDS011;61765;45.794;24.150;2023-05-16T02:44:03;14.43;;;5.68;;
21517;SDS011;61765;45.794;24.150;2023-05-16T02:52:11;14.45;;;5.40;;
21517;SDS011;61765;45.794;24.150;2023-05-16T03:00:17;12.95;;;5.35;;
21517;SDS011;61765;45.794;24.150;2023-05-16T03:08:25;9.63;;;5.50;;
21517;SDS011;61765;45.794;24.150;2023-05-16T03:16:31;14.48;;;6.10;;
21517;SDS011;61765;45.794;24.150;2023-05-16T03:24:40;16.15;;;6.63;;
21517;SDS011;61765;45.794;24.150;2023-05-16T03:32:45;17.10;;;6.47;;
21517;SDS011;61765;45.794;24.150;2023-05-16T03:40:54;12.52;;;6.03;;
21517;SDS011;61765;45.794;24.150;2023-05-16T03:49:00;11.93;;;5.43;;
21517;SDS011;61765;45.794;24.150;2023-05-16T03:57:08;15.40;;;4.88;;
21517;SDS011;61765;45.794;24.150;2023-05-16T04:05:13;10.10;;;4.82;;
21517;SDS011;61765;45.794;24.150;2023-05-16T04:13:21;16.48;;;4.63;;
21517;SDS011;61765;45.794;24.150;2023-05-16T04:21:27;12.70;;;4.47;;
21517;SDS011;61765;45.794;24.150;2023-05-16T04:29:35;12.10;;;5.10;;
21517;SDS011;61765;45.794;24.150;2023-05-16T04:37:40;15.80;;;5.68;;
21517;SDS011;61765;45.794;24.150;2023-05-16T04:45:48;14.70;;;4.88;;
21517;SDS011;61765;45.794;24.150;2023-05-16T04:53:54;9.93;;;4.65;;
21517;SDS011;61765;45.794;24.150;2023-05-16T05:02:02;20.75;;;5.82;;
21517;SDS011;61765;45.794;24.150;2023-05-16T05:10:09;13.45;;;5.95;;
21517;SDS011;61765;45.794;24.150;2023-05-16T05:18:17;9.57;;;4.80;;
21517;SDS011;61765;45.794;24.150;2023-05-16T05:26:23;15.90;;;5.60;;
21517;SDS011;61765;45.794;24.150;2023-05-16T05:34:32;10.75;;;4.60;;
21517;SDS011;61765;45.794;24.150;2023-05-16T05:42:38;16.15;;;4.80;;
21517;SDS011;61765;45.794;24.150;2023-05-16T05:50:50;14.20;;;5.38;;
21517;SDS011;61765;45.794;24.150;2023-05-16T05:58:56;17.98;;;5.32;;
21517;SDS011;61765;45.794;24.150;2023-05-16T06:07:08;13.13;;;4.70;;
21517;SDS011;61765;45.794;24.150;2023-05-16T06:15:18;13.48;;;4.68;;
21517;SDS011;61765;45.794;24.150;2023-05-16T06:23:26;10.90;;;5.07;;
21517;SDS011;61765;45.794;24.150;2023-05-16T06:31:31;11.88;;;4.32;;
21517;SDS011;61765;45.794;24.150;2023-05-16T06:39:40;17.40;;;5.50;;
21517;SDS011;61765;45.794;24.150;2023-05-16T06:47:45;15.13;;;5.32;;
21517;SDS011;61765;45.794;24.150;2023-05-16T06:55:54;14.00;;;5.07;;
21517;SDS011;61765;45.794;24.150;2023-05-16T07:03:59;12.65;;;5.68;;
21517;SDS011;61765;45.794;24.150;2023-05-16T07:12:08;20.08;;;6.05;;
21517;SDS011;61765;45.794;24.150;2023-05-16T07:20:14;12.48;;;5.00;;
21517;SDS011;61765;45.794;24.150;2023-05-16T07:28:22;12.75;;;6.25;;
21517;SDS011;61765;45.794;24.150;2023-05-16T07:36:27;17.10;;;5.65;;
21517;SDS011;61765;45.794;24.150;2023-05-16T07:44:36;10.82;;;4.70;;
21517;SDS011;61765;45.794;24.150;2023-05-16T07:52:41;12.63;;;4.82;;
21517;SDS011;61765;45.794;24.150;2023-05-16T08:00:50;14.18;;;5.28;;
21517;SDS011;61765;45.794;24.150;2023-05-16T08:08:55;10.90;;;4.85;;
21517;SDS011;61765;45.794;24.150;2023-05-16T08:17:06;11.80;;;5.50;;
21517;SDS011;61765;45.794;24.150;2023-05-16T08:25:11;11.18;;;5.47;;
21517;SDS011;61765;45.794;24.150;2023-05-16T08:33:19;12.05;;;4.30;;
21517;SDS011;61765;45.794;24.150;2023-05-16T08:41:25;15.40;;;5.32;;
21517;SDS011;61765;45.794;24.150;2023-05-16T08:49:33;14.50;;;4.97;;
21517;SDS011;61765;45.794;24.150;2023-05-16T08:57:39;18.65;;;4.65;;
21517;SDS011;61765;45.794;24.150;2023-05-16T09:31:55;12.75;;;4.72;;
21517;SDS011;61765;45.794;24.150;2023-05-16T10:07:01;25.58;;;5.85;;
21517;SDS011;61765;45.794;24.150;2023-05-16T10:50:15;21.90;;;5.05;;
21517;SDS011;61765;45.794;24.150;2023-05-16T11:25:19;25.38;;;4.97;;
21517;SDS011;61765;45.794;24.150;2023-05-16T12:17:31;27.52;;;6.45;;
21517;SDS011;61765;45.794;24.150;2023-05-16T12:25:37;23.48;;;5.68;;
21517;SDS011;61765;45.794;24.150;2023-05-16T12:41:59;26.65;;;5.47;;
21517;SDS011;61765;45.794;24.150;2023-05-16T12:58:20;32.83;;;6.20;;
21517;SDS011;61765;45.794;24.150;2023-05-16T13:06:29;31.25;;;5.72;;
21517;SDS011;61765;45.794;24.150;2023-05-16T13:14:55;20.42;;;5.88;;
21517;SDS011;61765;45.794;24.150;2023-05-16T13:23:03;19.73;;;5.07;;
21517;SDS011;61765;45.794;24.150;2023-05-16T13:31:09;21.98;;;4.90;;
21517;SDS011;61765;45.794;24.150;2023-05-16T13:39:17;24.65;;;5.00;;
21517;SDS011;61765;45.794;24.150;2023-05-16T13:47:24;18.48;;;4.80;;
21517;SDS011;61765;45.794;24.150;2023-05-16T13:55:32;17.08;;;4.60;;
21517;SDS011;61765;45.794;24.150;2023-05-16T14:03:37;16.67;;;4.25;;
21517;SDS011;61765;45.794;24.150;2023-05-16T14:11:46;17.48;;;5.43;;
21517;SDS011;61765;45.794;24.150;2023-05-16T14:19:51;21.83;;;4.80;;
21517;SDS011;61765;45.794;24.150;2023-05-16T14:27:59;14.23;;;4.93;;
21517;SDS011;61765;45.794;24.150;2023-05-16T14:36:08;17.83;;;4.88;;
21517;SDS011;61765;45.794;24.150;2023-05-16T14:44:35;11.60;;;3.83;;
21517;SDS011;61765;45.794;24.150;2023-05-16T14:52:41;10.75;;;3.30;;
21517;SDS011;61765;45.794;24.150;2023-05-16T15:00:49;14.75;;;3.75;;
21517;SDS011;61765;45.794;24.150;2023-05-16T15:08:55;15.00;;;3.85;;
21517;SDS011;61765;45.794;24.150;2023-05-16T15:17:03;9.98;;;3.25;;
21517;SDS011;61765;45.794;24.150;2023-05-16T15:25:09;8.52;;;3.45;;
21517;SDS011;61765;45.794;24.150;2023-05-16T15:33:17;12.25;;;4.15;;
21517;SDS011;61765;45.794;24.150;2023-05-16T15:41:25;13.02;;;3.80;;
21517;SDS011;61765;45.794;24.150;2023-05-16T15:49:53;7.43;;;3.33;;
21517;SDS011;61765;45.794;24.150;2023-05-16T15:57:58;13.63;;;4.00;;
21517;SDS011;61765;45.794;24.150;2023-05-16T16:06:07;12.38;;;3.83;;
21517;SDS011;61765;45.794;24.150;2023-05-16T16:14:12;15.73;;;3.80;;
21517;SDS011;61765;45.794;24.150;2023-05-16T16:22:22;11.90;;;4.10;;
21517;SDS011;61765;45.794;24.150;2023-05-16T16:30:28;8.25;;;3.67;;
21517;SDS011;61765;45.794;24.150;2023-05-16T16:38:36;10.65;;;3.83;;
21517;SDS011;61765;45.794;24.150;2023-05-16T16:46:42;11.43;;;4.03;;
21517;SDS011;61765;45.794;24.150;2023-05-16T16:54:51;14.32;;;4.15;;
21517;SDS011;61765;45.794;24.150;2023-05-16T17:02:56;11.77;;;4.03;;
21517;SDS011;61765;45.794;24.150;2023-05-16T17:11:07;12.05;;;4.30;;
21517;SDS011;61765;45.794;24.150;2023-05-16T17:19:12;6.82;;;3.92;;
21517;SDS011;61765;45.794;24.150;2023-05-16T17:27:20;10.95;;;3.88;;
21517;SDS011;61765;45.794;24.150;2023-05-16T17:35:26;9.40;;;4.18;;
21517;SDS011;61765;45.794;24.150;2023-05-16T17:43:34;13.38;;;4.50;;
21517;SDS011;61765;45.794;24.150;2023-05-16T17:51:43;12.63;;;5.07;;
21517;SDS011;61765;45.794;24.150;2023-05-16T17:59:52;10.20;;;5.32;;
21517;SDS011;61765;45.794;24.150;2023-05-16T18:07:58;10.30;;;5.25;;
21517;SDS011;61765;45.794;24.150;2023-05-16T18:16:08;11.10;;;4.20;;
21517;SDS011;61765;45.794;24.150;2023-05-16T18:24:14;11.70;;;4.95;;
21517;SDS011;61765;45.794;24.150;2023-05-16T18:32:22;12.18;;;4.18;;
21517;SDS011;61765;45.794;24.150;2023-05-16T18:40:27;10.48;;;4.07;;
21517;SDS011;61765;45.794;24.150;2023-05-16T18:48:36;8.80;;;3.83;;
21517;SDS011;61765;45.794;24.150;2023-05-16T18:56:41;11.30;;;4.45;;
21517;SDS011;61765;45.794;24.150;2023-05-16T19:04:49;11.10;;;3.80;;
21517;SDS011;61765;45.794;24.150;2023-05-16T19:12:55;11.25;;;4.32;;
21517;SDS011;61765;45.794;24.150;2023-05-16T19:21:10;13.73;;;4.07;;
21517;SDS011;61765;45.794;24.150;2023-05-16T19:29:16;10.60;;;3.80;;
21517;SDS011;61765;45.794;24.150;2023-05-16T19:37:25;14.60;;;4.40;;
21517;SDS011;61765;45.794;24.150;2023-05-16T19:45:31;16.67;;;4.78;;
21517;SDS011;61765;45.794;24.150;2023-05-16T19:53:39;11.15;;;4.00;;
21517;SDS011;61765;45.794;24.150;2023-05-16T20:01:46;11.63;;;3.92;;
21517;SDS011;61765;45.794;24.150;2023-05-16T20:09:54;15.82;;;4.32;;
21517;SDS011;61765;45.794;24.150;2023-05-16T20:18:00;12.77;;;3.92;;
21517;SDS011;61765;45.794;24.150;2023-05-16T20:26:08;12.77;;;3.85;;
21517;SDS011;61765;45.794;24.150;2023-05-16T20:34:15;18.02;;;4.72;;
21517;SDS011;61765;45.794;24.150;2023-05-16T20:42:23;22.40;;;8.32;;
21517;SDS011;61765;45.794;24.150;2023-05-16T20:50:29;22.77;;;8.32;;
21517;SDS011;61765;45.794;24.150;2023-05-16T20:58:39;25.45;;;10.65;;
21517;SDS011;61765;45.794;24.150;2023-05-16T21:06:45;28.20;;;7.03;;
21517;SDS011;61765;45.794;24.150;2023-05-16T21:14:53;13.93;;;4.05;;
21517;SDS011;61765;45.794;24.150;2023-05-16T21:22:58;11.07;;;3.70;;
21517;SDS011;61765;45.794;24.150;2023-05-16T21:31:06;14.70;;;3.55;;
21517;SDS011;61765;45.794;24.150;2023-05-16T21:39:13;17.70;;;4.40;;
21517;SDS011;61765;45.794;24.150;2023-05-16T21:47:21;16.92;;;3.80;;
21517;SDS011;61765;45.794;24.150;2023-05-16T21:55:27;17.58;;;3.75;;
21517;SDS011;61765;45.794;24.150;2023-05-16T22:03:35;19.70;;;4.38;;
21517;SDS011;61765;45.794;24.150;2023-05-16T22:11:40;15.98;;;4.22;;
21517;SDS011;61765;45.794;24.150;2023-05-16T22:19:48;20.23;;;4.38;;
21517;SDS011;61765;45.794;24.150;2023-05-16T22:27:54;16.50;;;4.28;;
21517;SDS011;61765;45.794;24.150;2023-05-16T22:44:24;18.15;;;4.30;;
21517;SDS011;61765;45.794;24.150;2023-05-16T22:52:32;18.00;;;4.32;;
21517;SDS011;61765;45.794;24.150;2023-05-16T23:00:41;15.23;;;4.30;;
21517;SDS011;61765;45.794;24.150;2023-05-16T23:08:49;22.30;;;4.93;;
21517;SDS011;61765;45.794;24.150;2023-05-16T23:16:55;26.05;;;5.35;;
21517;SDS011;61765;45.794;24.150;2023-05-16T23:25:03;19.60;;;4.97;;
21517;SDS011;61765;45.794;24.150;2023-05-16T23:33:09;13.55;;;4.05;;
21517;SDS011;61765;45.794;24.150;2023-05-16T23:41:18;18.63;;;4.65;;
21517;SDS011;61765;45.794;24.150;2023-05-16T23:49:23;16.33;;;4.93;;
21517;SDS011;61765;45.794;24.150;2023-05-16T23:57:31;16.70;;;3.70;;
